Search for airport 
image banner adimage banner adimage banner ad
image banner ad

95CA - Bonel

Located in Whitley Garden, United States

ICAO - 95CA, IATA -

Data provided by Airmate  

General information

Coordinates: N35°40'9" W120°32'55"
Elevation is 1030 feet MSL.
Magnetic variation is 15° East
View others Airports in California

Operational data

Special qualification required
Current time UTC:
Current local time:
Weather at : KPRB - Paso Robles Muni ( 7 km )
METAR: KPRB 221353Z AUTO 00000KT 10SM OVC011 14/11 A2996 RMK AO2 SLP140 T01440111
TAF: KPRB 221136Z 2212/2312 18005KT P6SM OVC006 FM221700 20008KT P6SM SKC FM222100 20015KT P6SM SKC FM230300 19008KT P6SM SKC FM231000 VRB03KT P6SM SCT006
View NOTAMs / SUP AIP / TFR affecting this airport [VIEW]
Communications frequencies: [VIEW]

Runways:

RWY identifierQFULength (ft)Width (ft)SurfaceLDA (ft)
17200050GRASS
35200050GRASS

Airport contact information

Address: Whitley Garden United States

Satellite view of 95CA